sensor_id;sensor_type;location;lat;lon;timestamp;P1;durP1;ratioP1;P2;durP2;ratioP2
17814;SDS011;9031;50.974;11.330;2023-06-24T00:02:05;15.97;;;14.37;;
17814;SDS011;9031;50.974;11.330;2023-06-24T00:04:31;17.60;;;14.53;;
17814;SDS011;9031;50.974;11.330;2023-06-24T00:06:56;16.17;;;14.67;;
17814;SDS011;9031;50.974;11.330;2023-06-24T00:09:25;15.90;;;14.13;;
17814;SDS011;9031;50.974;11.330;2023-06-24T00:11:55;15.53;;;13.90;;
17814;SDS011;9031;50.974;11.330;2023-06-24T00:14:21;16.73;;;14.23;;
17814;SDS011;9031;50.974;11.330;2023-06-24T00:16:48;19.17;;;14.17;;
17814;SDS011;9031;50.974;11.330;2023-06-24T00:19:25;15.73;;;14.20;;
17814;SDS011;9031;50.974;11.330;2023-06-24T00:21:53;17.03;;;14.40;;
17814;SDS011;9031;50.974;11.330;2023-06-24T00:24:20;15.60;;;14.00;;
17814;SDS011;9031;50.974;11.330;2023-06-24T00:26:50;14.47;;;13.13;;
17814;SDS011;9031;50.974;11.330;2023-06-24T00:29:16;17.57;;;14.27;;
17814;SDS011;9031;50.974;11.330;2023-06-24T00:31:42;15.13;;;13.53;;
17814;SDS011;9031;50.974;11.330;2023-06-24T00:34:08;15.60;;;14.20;;
17814;SDS011;9031;50.974;11.330;2023-06-24T00:36:33;16.07;;;14.47;;
17814;SDS011;9031;50.974;11.330;2023-06-24T00:39:02;15.37;;;13.87;;
17814;SDS011;9031;50.974;11.330;2023-06-24T00:41:29;14.90;;;13.60;;
17814;SDS011;9031;50.974;11.330;2023-06-24T00:43:55;14.77;;;13.47;;
17814;SDS011;9031;50.974;11.330;2023-06-24T00:46:25;15.20;;;13.90;;
17814;SDS011;9031;50.974;11.330;2023-06-24T00:48:54;15.07;;;13.23;;
17814;SDS011;9031;50.974;11.330;2023-06-24T00:51:21;15.40;;;13.80;;
17814;SDS011;9031;50.974;11.330;2023-06-24T00:53:51;14.57;;;13.17;;
17814;SDS011;9031;50.974;11.330;2023-06-24T00:56:21;14.70;;;13.20;;
17814;SDS011;9031;50.974;11.330;2023-06-24T00:58:50;17.10;;;12.93;;
17814;SDS011;9031;50.974;11.330;2023-06-24T01:01:17;16.40;;;11.97;;
17814;SDS011;9031;50.974;11.330;2023-06-24T01:03:43;14.17;;;12.43;;
17814;SDS011;9031;50.974;11.330;2023-06-24T01:06:08;17.67;;;13.07;;
17814;SDS011;9031;50.974;11.330;2023-06-24T01:08:35;13.47;;;12.07;;
17814;SDS011;9031;50.974;11.330;2023-06-24T01:11:00;14.10;;;12.60;;
17814;SDS011;9031;50.974;11.330;2023-06-24T01:13:26;14.23;;;13.03;;
17814;SDS011;9031;50.974;11.330;2023-06-24T01:15:51;15.43;;;13.10;;
17814;SDS011;9031;50.974;11.330;2023-06-24T01:18:32;14.20;;;12.80;;
17814;SDS011;9031;50.974;11.330;2023-06-24T01:21:03;13.77;;;12.47;;
17814;SDS011;9031;50.974;11.330;2023-06-24T01:32:00;13.80;;;12.57;;
17814;SDS011;9031;50.974;11.330;2023-06-24T01:37:12;13.70;;;12.30;;
17814;SDS011;9031;50.974;11.330;2023-06-24T01:39:46;14.17;;;12.77;;
17814;SDS011;9031;50.974;11.330;2023-06-24T01:42:16;12.77;;;11.50;;
17814;SDS011;9031;50.974;11.330;2023-06-24T01:44:43;13.47;;;12.17;;
17814;SDS011;9031;50.974;11.330;2023-06-24T01:47:12;16.53;;;12.20;;
17814;SDS011;9031;50.974;11.330;2023-06-24T01:49:43;12.83;;;11.73;;
17814;SDS011;9031;50.974;11.330;2023-06-24T01:52:10;13.87;;;12.43;;
17814;SDS011;9031;50.974;11.330;2023-06-24T01:54:37;13.30;;;11.93;;
17814;SDS011;9031;50.974;11.330;2023-06-24T01:57:05;16.50;;;11.93;;
17814;SDS011;9031;50.974;11.330;2023-06-24T01:59:33;16.90;;;11.60;;
17814;SDS011;9031;50.974;11.330;2023-06-24T02:02:01;14.33;;;12.93;;
17814;SDS011;9031;50.974;11.330;2023-06-24T02:04:28;14.47;;;12.97;;
17814;SDS011;9031;50.974;11.330;2023-06-24T02:06:56;14.23;;;12.70;;
17814;SDS011;9031;50.974;11.330;2023-06-24T02:09:25;15.07;;;13.13;;
17814;SDS011;9031;50.974;11.330;2023-06-24T02:11:53;13.90;;;12.50;;
17814;SDS011;9031;50.974;11.330;2023-06-24T02:14:21;16.93;;;12.40;;
17814;SDS011;9031;50.974;11.330;2023-06-24T02:16:46;13.97;;;11.83;;
17814;SDS011;9031;50.974;11.330;2023-06-24T02:19:14;12.63;;;11.43;;
17814;SDS011;9031;50.974;11.330;2023-06-24T02:21:42;12.47;;;11.17;;
17814;SDS011;9031;50.974;11.330;2023-06-24T02:24:09;13.07;;;11.80;;
17814;SDS011;9031;50.974;11.330;2023-06-24T02:26:36;13.20;;;11.97;;
17814;SDS011;9031;50.974;11.330;2023-06-24T02:29:05;13.70;;;12.30;;
17814;SDS011;9031;50.974;11.330;2023-06-24T02:31:34;14.30;;;12.97;;
17814;SDS011;9031;50.974;11.330;2023-06-24T02:34:00;13.30;;;12.07;;
17814;SDS011;9031;50.974;11.330;2023-06-24T02:36:25;13.40;;;12.00;;
17814;SDS011;9031;50.974;11.330;2023-06-24T02:38:51;13.17;;;11.80;;
17814;SDS011;9031;50.974;11.330;2023-06-24T02:41:16;13.83;;;11.87;;
17814;SDS011;9031;50.974;11.330;2023-06-24T02:43:42;13.47;;;12.27;;
17814;SDS011;9031;50.974;11.330;2023-06-24T02:46:07;16.00;;;14.40;;
17814;SDS011;9031;50.974;11.330;2023-06-24T02:48:34;13.73;;;12.40;;
17814;SDS011;9031;50.974;11.330;2023-06-24T02:51:02;15.47;;;13.73;;
17814;SDS011;9031;50.974;11.330;2023-06-24T02:53:29;17.53;;;13.90;;
17814;SDS011;9031;50.974;11.330;2023-06-24T02:55:55;17.20;;;14.20;;
17814;SDS011;9031;50.974;11.330;2023-06-24T02:58:21;16.77;;;15.17;;
17814;SDS011;9031;50.974;11.330;2023-06-24T03:00:48;17.10;;;15.33;;
17814;SDS011;9031;50.974;11.330;2023-06-24T03:03:15;16.50;;;14.03;;
17814;SDS011;9031;50.974;11.330;2023-06-24T03:05:41;17.73;;;14.67;;
17814;SDS011;9031;50.974;11.330;2023-06-24T03:08:09;17.83;;;14.80;;
17814;SDS011;9031;50.974;11.330;2023-06-24T03:10:36;19.33;;;14.37;;
17814;SDS011;9031;50.974;11.330;2023-06-24T03:13:02;16.80;;;15.00;;
17814;SDS011;9031;50.974;11.330;2023-06-24T03:15:28;17.37;;;14.17;;
17814;SDS011;9031;50.974;11.330;2023-06-24T03:17:53;15.40;;;13.87;;
17814;SDS011;9031;50.974;11.330;2023-06-24T03:20:19;16.80;;;14.53;;
17814;SDS011;9031;50.974;11.330;2023-06-24T03:22:45;17.93;;;14.30;;
17814;SDS011;9031;50.974;11.330;2023-06-24T03:25:11;16.10;;;14.43;;
17814;SDS011;9031;50.974;11.330;2023-06-24T03:27:36;16.30;;;14.70;;
17814;SDS011;9031;50.974;11.330;2023-06-24T03:30:02;14.83;;;13.37;;
17814;SDS011;9031;50.974;11.330;2023-06-24T03:32:28;17.23;;;13.10;;
17814;SDS011;9031;50.974;11.330;2023-06-24T03:34:54;14.40;;;13.10;;
17814;SDS011;9031;50.974;11.330;2023-06-24T03:37:19;14.00;;;12.70;;
17814;SDS011;9031;50.974;11.330;2023-06-24T03:39:45;15.33;;;12.97;;
17814;SDS011;9031;50.974;11.330;2023-06-24T03:42:10;15.60;;;12.93;;
17814;SDS011;9031;50.974;11.330;2023-06-24T03:44:36;14.77;;;13.27;;
17814;SDS011;9031;50.974;11.330;2023-06-24T03:47:01;13.57;;;12.07;;
17814;SDS011;9031;50.974;11.330;2023-06-24T03:49:27;19.07;;;13.10;;
17814;SDS011;9031;50.974;11.330;2023-06-24T03:51:52;15.03;;;13.13;;
17814;SDS011;9031;50.974;11.330;2023-06-24T03:54:18;14.60;;;13.10;;
17814;SDS011;9031;50.974;11.330;2023-06-24T03:56:43;14.57;;;13.07;;
17814;SDS011;9031;50.974;11.330;2023-06-24T03:59:09;18.33;;;13.43;;
17814;SDS011;9031;50.974;11.330;2023-06-24T04:01:34;14.70;;;12.23;;
17814;SDS011;9031;50.974;11.330;2023-06-24T04:04:01;13.10;;;11.80;;
17814;SDS011;9031;50.974;11.330;2023-06-24T04:06:26;15.20;;;13.00;;
17814;SDS011;9031;50.974;11.330;2023-06-24T04:08:52;14.87;;;13.33;;
17814;SDS011;9031;50.974;11.330;2023-06-24T04:11:18;14.50;;;12.43;;
17814;SDS011;9031;50.974;11.330;2023-06-24T04:13:46;14.67;;;13.00;;
17814;SDS011;9031;50.974;11.330;2023-06-24T04:16:13;14.33;;;12.83;;
17814;SDS011;9031;50.974;11.330;2023-06-24T04:18:39;16.07;;;13.03;;
17814;SDS011;9031;50.974;11.330;2023-06-24T04:21:05;14.63;;;12.50;;
17814;SDS011;9031;50.974;11.330;2023-06-24T04:23:31;16.70;;;13.10;;
17814;SDS011;9031;50.974;11.330;2023-06-24T04:25:57;17.00;;;12.67;;
17814;SDS011;9031;50.974;11.330;2023-06-24T04:28:23;13.57;;;12.17;;
17814;SDS011;9031;50.974;11.330;2023-06-24T04:30:49;14.57;;;11.90;;
17814;SDS011;9031;50.974;11.330;2023-06-24T04:33:14;14.00;;;11.80;;
17814;SDS011;9031;50.974;11.330;2023-06-24T04:35:40;15.47;;;11.47;;
17814;SDS011;9031;50.974;11.330;2023-06-24T04:38:05;15.23;;;11.83;;
17814;SDS011;9031;50.974;11.330;2023-06-24T04:40:30;12.57;;;11.33;;
17814;SDS011;9031;50.974;11.330;2023-06-24T04:42:56;12.20;;;10.93;;
17814;SDS011;9031;50.974;11.330;2023-06-24T04:45:21;12.67;;;11.47;;
17814;SDS011;9031;50.974;11.330;2023-06-24T04:47:47;12.63;;;11.33;;
17814;SDS011;9031;50.974;11.330;2023-06-24T04:50:13;11.80;;;10.60;;
17814;SDS011;9031;50.974;11.330;2023-06-24T04:52:38;14.30;;;9.97;;
17814;SDS011;9031;50.974;11.330;2023-06-24T04:55:04;15.07;;;10.73;;
17814;SDS011;9031;50.974;11.330;2023-06-24T04:57:31;10.67;;;9.67;;
17814;SDS011;9031;50.974;11.330;2023-06-24T04:59:58;11.57;;;10.37;;
17814;SDS011;9031;50.974;11.330;2023-06-24T05:02:23;10.83;;;9.83;;
17814;SDS011;9031;50.974;11.330;2023-06-24T05:04:50;10.70;;;9.47;;
17814;SDS011;9031;50.974;11.330;2023-06-24T05:07:16;11.30;;;9.20;;
17814;SDS011;9031;50.974;11.330;2023-06-24T05:09:42;13.50;;;9.50;;
17814;SDS011;9031;50.974;11.330;2023-06-24T05:12:08;9.90;;;8.90;;
17814;SDS011;9031;50.974;11.330;2023-06-24T05:14:34;12.43;;;8.93;;
17814;SDS011;9031;50.974;11.330;2023-06-24T05:17:00;10.10;;;8.43;;
17814;SDS011;9031;50.974;11.330;2023-06-24T05:19:26;9.70;;;8.30;;
17814;SDS011;9031;50.974;11.330;2023-06-24T05:21:51;9.37;;;8.30;;
17814;SDS011;9031;50.974;11.330;2023-06-24T05:24:17;9.07;;;7.97;;
17814;SDS011;9031;50.974;11.330;2023-06-24T05:26:42;9.83;;;8.83;;
17814;SDS011;9031;50.974;11.330;2023-06-24T05:29:09;9.60;;;8.10;;
17814;SDS011;9031;50.974;11.330;2023-06-24T05:31:35;9.20;;;7.87;;
17814;SDS011;9031;50.974;11.330;2023-06-24T05:34:00;14.27;;;8.63;;
17814;SDS011;9031;50.974;11.330;2023-06-24T05:36:26;11.27;;;7.50;;
17814;SDS011;9031;50.974;11.330;2023-06-24T05:38:51;10.07;;;7.43;;
17814;SDS011;9031;50.974;11.330;2023-06-24T05:41:17;9.80;;;7.83;;
17814;SDS011;9031;50.974;11.330;2023-06-24T05:43:42;8.33;;;7.30;;
17814;SDS011;9031;50.974;11.330;2023-06-24T05:46:08;8.07;;;7.20;;
17814;SDS011;9031;50.974;11.330;2023-06-24T05:48:34;7.90;;;7.10;;
17814;SDS011;9031;50.974;11.330;2023-06-24T05:50:59;8.70;;;6.80;;
17814;SDS011;9031;50.974;11.330;2023-06-24T05:53:25;10.27;;;6.63;;
17814;SDS011;9031;50.974;11.330;2023-06-24T05:55:50;8.03;;;7.23;;
17814;SDS011;9031;50.974;11.330;2023-06-24T05:58:16;9.70;;;7.30;;
17814;SDS011;9031;50.974;11.330;2023-06-24T06:00:41;11.17;;;7.53;;
17814;SDS011;9031;50.974;11.330;2023-06-24T06:03:07;7.73;;;6.83;;
17814;SDS011;9031;50.974;11.330;2023-06-24T06:05:33;8.07;;;7.10;;
17814;SDS011;9031;50.974;11.330;2023-06-24T06:07:58;9.47;;;7.27;;
17814;SDS011;9031;50.974;11.330;2023-06-24T06:10:24;9.13;;;7.53;;
17814;SDS011;9031;50.974;11.330;2023-06-24T06:12:49;8.80;;;7.23;;
17814;SDS011;9031;50.974;11.330;2023-06-24T06:15:15;10.93;;;7.03;;
17814;SDS011;9031;50.974;11.330;2023-06-24T06:17:40;8.33;;;7.30;;
17814;SDS011;9031;50.974;11.330;2023-06-24T06:20:06;7.63;;;6.50;;
17814;SDS011;9031;50.974;11.330;2023-06-24T06:22:32;7.13;;;6.43;;
17814;SDS011;9031;50.974;11.330;2023-06-24T06:25:02;7.73;;;6.23;;
17814;SDS011;9031;50.974;11.330;2023-06-24T06:27:29;7.40;;;6.70;;
17814;SDS011;9031;50.974;11.330;2023-06-24T06:29:54;9.87;;;6.90;;
17814;SDS011;9031;50.974;11.330;2023-06-24T06:32:20;7.87;;;6.10;;
17814;SDS011;9031;50.974;11.330;2023-06-24T06:34:45;21.20;;;18.10;;
17814;SDS011;9031;50.974;11.330;2023-06-24T06:37:11;7.80;;;6.77;;
17814;SDS011;9031;50.974;11.330;2023-06-24T06:39:36;8.33;;;6.83;;
17814;SDS011;9031;50.974;11.330;2023-06-24T06:42:01;8.00;;;7.20;;
17814;SDS011;9031;50.974;11.330;2023-06-24T06:44:27;8.90;;;7.07;;
17814;SDS011;9031;50.974;11.330;2023-06-24T06:46:53;9.40;;;7.10;;
17814;SDS011;9031;50.974;11.330;2023-06-24T06:49:18;6.73;;;6.23;;
17814;SDS011;9031;50.974;11.330;2023-06-24T06:51:44;7.60;;;6.07;;
17814;SDS011;9031;50.974;11.330;2023-06-24T06:54:09;6.80;;;6.20;;
17814;SDS011;9031;50.974;11.330;2023-06-24T06:56:35;8.43;;;6.00;;
17814;SDS011;9031;50.974;11.330;2023-06-24T06:59:00;8.37;;;5.87;;
17814;SDS011;9031;50.974;11.330;2023-06-24T07:01:25;9.87;;;5.83;;
17814;SDS011;9031;50.974;11.330;2023-06-24T07:03:51;7.30;;;6.57;;
17814;SDS011;9031;50.974;11.330;2023-06-24T07:06:20;6.97;;;5.87;;
17814;SDS011;9031;50.974;11.330;2023-06-24T07:08:45;5.63;;;5.13;;
17814;SDS011;9031;50.974;11.330;2023-06-24T07:11:11;7.03;;;4.87;;
17814;SDS011;9031;50.974;11.330;2023-06-24T07:13:36;6.30;;;5.30;;
17814;SDS011;9031;50.974;11.330;2023-06-24T07:16:02;6.87;;;5.67;;
17814;SDS011;9031;50.974;11.330;2023-06-24T07:18:27;7.07;;;5.57;;
17814;SDS011;9031;50.974;11.330;2023-06-24T07:20:55;6.57;;;5.97;;
17814;SDS011;9031;50.974;11.330;2023-06-24T07:23:21;6.33;;;5.10;;
17814;SDS011;9031;50.974;11.330;2023-06-24T07:25:47;6.50;;;5.60;;
17814;SDS011;9031;50.974;11.330;2023-06-24T07:28:12;6.93;;;5.53;;
17814;SDS011;9031;50.974;11.330;2023-06-24T07:30:38;7.10;;;5.73;;
17814;SDS011;9031;50.974;11.330;2023-06-24T07:33:05;6.47;;;5.63;;
17814;SDS011;9031;50.974;11.330;2023-06-24T07:35:34;12.17;;;8.83;;
17814;SDS011;9031;50.974;11.330;2023-06-24T07:38:00;6.70;;;4.93;;
17814;SDS011;9031;50.974;11.330;2023-06-24T07:40:25;8.00;;;5.63;;
17814;SDS011;9031;50.974;11.330;2023-06-24T07:42:51;5.73;;;5.13;;
17814;SDS011;9031;50.974;11.330;2023-06-24T07:45:17;10.47;;;5.07;;
17814;SDS011;9031;50.974;11.330;2023-06-24T07:47:43;6.43;;;5.00;;
17814;SDS011;9031;50.974;11.330;2023-06-24T07:50:08;5.00;;;4.47;;
17814;SDS011;9031;50.974;11.330;2023-06-24T07:52:36;6.30;;;5.60;;
17814;SDS011;9031;50.974;11.330;2023-06-24T07:55:04;6.43;;;5.43;;
17814;SDS011;9031;50.974;11.330;2023-06-24T07:57:30;5.00;;;4.50;;
17814;SDS011;9031;50.974;11.330;2023-06-24T07:59:55;7.47;;;4.80;;
17814;SDS011;9031;50.974;11.330;2023-06-24T08:02:21;6.07;;;3.97;;
17814;SDS011;9031;50.974;11.330;2023-06-24T08:04:46;4.53;;;4.13;;
17814;SDS011;9031;50.974;11.330;2023-06-24T08:07:12;8.10;;;4.20;;
17814;SDS011;9031;50.974;11.330;2023-06-24T08:09:37;6.20;;;4.40;;
17814;SDS011;9031;50.974;11.330;2023-06-24T08:12:03;4.97;;;4.47;;
17814;SDS011;9031;50.974;11.330;2023-06-24T08:14:29;6.53;;;4.00;;
17814;SDS011;9031;50.974;11.330;2023-06-24T08:16:54;4.40;;;4.00;;
17814;SDS011;9031;50.974;11.330;2023-06-24T08:19:20;4.83;;;4.33;;
17814;SDS011;9031;50.974;11.330;2023-06-24T08:21:45;4.50;;;3.00;;
17814;SDS011;9031;50.974;11.330;2023-06-24T08:24:11;3.23;;;2.93;;
17814;SDS011;9031;50.974;11.330;2023-06-24T08:26:36;3.23;;;2.70;;
17814;SDS011;9031;50.974;11.330;2023-06-24T08:29:02;3.57;;;2.67;;
17814;SDS011;9031;50.974;11.330;2023-06-24T08:31:27;4.53;;;2.93;;
17814;SDS011;9031;50.974;11.330;2023-06-24T08:33:53;4.83;;;2.90;;
17814;SDS011;9031;50.974;11.330;2023-06-24T08:36:22;4.50;;;2.70;;
17814;SDS011;9031;50.974;11.330;2023-06-24T08:38:48;2.97;;;2.40;;
17814;SDS011;9031;50.974;11.330;2023-06-24T08:41:14;4.23;;;2.67;;
17814;SDS011;9031;50.974;11.330;2023-06-24T08:43:39;3.70;;;3.10;;
17814;SDS011;9031;50.974;11.330;2023-06-24T08:46:05;3.37;;;2.60;;
17814;SDS011;9031;50.974;11.330;2023-06-24T08:48:31;3.27;;;2.40;;
17814;SDS011;9031;50.974;11.330;2023-06-24T08:51:04;2.60;;;2.00;;
17814;SDS011;9031;50.974;11.330;2023-06-24T08:53:33;3.60;;;2.30;;
17814;SDS011;9031;50.974;11.330;2023-06-24T08:56:00;3.37;;;2.73;;
17814;SDS011;9031;50.974;11.330;2023-06-24T08:58:26;2.80;;;2.40;;
17814;SDS011;9031;50.974;11.330;2023-06-24T09:00:52;4.90;;;2.53;;
17814;SDS011;9031;50.974;11.330;2023-06-24T09:03:18;5.03;;;2.60;;
17814;SDS011;9031;50.974;11.330;2023-06-24T09:05:43;4.03;;;1.97;;
17814;SDS011;9031;50.974;11.330;2023-06-24T09:08:09;2.10;;;1.90;;
17814;SDS011;9031;50.974;11.330;2023-06-24T09:10:36;4.40;;;2.30;;
17814;SDS011;9031;50.974;11.330;2023-06-24T09:13:05;4.03;;;2.60;;
17814;SDS011;9031;50.974;11.330;2023-06-24T09:17:57;4.03;;;2.10;;
17814;SDS011;9031;50.974;11.330;2023-06-24T09:20:25;3.77;;;2.10;;
17814;SDS011;9031;50.974;11.330;2023-06-24T09:22:58;1.80;;;1.53;;
17814;SDS011;9031;50.974;11.330;2023-06-24T09:25:28;3.60;;;1.80;;
17814;SDS011;9031;50.974;11.330;2023-06-24T09:27:54;2.40;;;1.77;;
17814;SDS011;9031;50.974;11.330;2023-06-24T09:30:23;3.03;;;2.07;;
17814;SDS011;9031;50.974;11.330;2023-06-24T09:32:49;2.57;;;1.80;;
17814;SDS011;9031;50.974;11.330;2023-06-24T09:35:19;2.17;;;1.97;;
17814;SDS011;9031;50.974;11.330;2023-06-24T09:37:50;2.70;;;1.70;;
17814;SDS011;9031;50.974;11.330;2023-06-24T09:40:19;1.83;;;1.40;;
17814;SDS011;9031;50.974;11.330;2023-06-24T09:42:49;4.97;;;1.60;;
17814;SDS011;9031;50.974;11.330;2023-06-24T09:45:22;2.27;;;1.73;;
17814;SDS011;9031;50.974;11.330;2023-06-24T09:47:51;8.47;;;2.20;;
17814;SDS011;9031;50.974;11.330;2023-06-24T09:50:18;2.50;;;1.53;;
17814;SDS011;9031;50.974;11.330;2023-06-24T09:52:44;3.60;;;1.53;;
17814;SDS011;9031;50.974;11.330;2023-06-24T09:55:12;2.73;;;1.73;;
17814;SDS011;9031;50.974;11.330;2023-06-24T09:57:39;2.00;;;1.80;;
17814;SDS011;9031;50.974;11.330;2023-06-24T10:00:08;2.13;;;1.73;;
17814;SDS011;9031;50.974;11.330;2023-06-24T10:02:35;2.13;;;1.50;;
17814;SDS011;9031;50.974;11.330;2023-06-24T10:05:01;2.07;;;1.60;;
17814;SDS011;9031;50.974;11.330;2023-06-24T10:07:27;6.00;;;1.83;;
17814;SDS011;9031;50.974;11.330;2023-06-24T10:09:53;2.77;;;1.40;;
17814;SDS011;9031;50.974;11.330;2023-06-24T10:12:19;2.70;;;1.80;;
17814;SDS011;9031;50.974;11.330;2023-06-24T10:14:45;3.80;;;2.27;;
17814;SDS011;9031;50.974;11.330;2023-06-24T10:17:11;1.80;;;1.47;;
17814;SDS011;9031;50.974;11.330;2023-06-24T10:19:40;2.27;;;1.90;;
17814;SDS011;9031;50.974;11.330;2023-06-24T10:22:09;2.97;;;1.70;;
17814;SDS011;9031;50.974;11.330;2023-06-24T10:24:37;2.27;;;1.70;;
17814;SDS011;9031;50.974;11.330;2023-06-24T10:29:34;2.73;;;2.10;;
17814;SDS011;9031;50.974;11.330;2023-06-24T10:32:04;2.70;;;1.93;;
17814;SDS011;9031;50.974;11.330;2023-06-24T10:34:43;2.97;;;2.13;;
17814;SDS011;9031;50.974;11.330;2023-06-24T10:40:00;2.10;;;1.77;;
17814;SDS011;9031;50.974;11.330;2023-06-24T10:42:30;3.70;;;2.10;;
17814;SDS011;9031;50.974;11.330;2023-06-24T10:45:17;2.93;;;2.33;;
17814;SDS011;9031;50.974;11.330;2023-06-24T10:47:44;2.97;;;2.27;;
17814;SDS011;9031;50.974;11.330;2023-06-24T10:50:12;5.73;;;2.00;;
17814;SDS011;9031;50.974;11.330;2023-06-24T10:52:42;5.93;;;2.50;;
17814;SDS011;9031;50.974;11.330;2023-06-24T10:55:09;3.43;;;2.00;;
17814;SDS011;9031;50.974;11.330;2023-06-24T10:57:34;3.10;;;2.00;;
17814;SDS011;9031;50.974;11.330;2023-06-24T11:00:00;2.20;;;2.00;;
17814;SDS011;9031;50.974;11.330;2023-06-24T11:02:28;1.90;;;1.70;;
17814;SDS011;9031;50.974;11.330;2023-06-24T11:04:54;1.63;;;1.52;;
17814;SDS011;9031;50.974;11.330;2023-06-24T11:07:25;4.85;;;1.85;;
17814;SDS011;9031;50.974;11.330;2023-06-24T11:09:55;2.80;;;1.77;;
17814;SDS011;9031;50.974;11.330;2023-06-24T11:12:26;1.40;;;1.30;;
17814;SDS011;9031;50.974;11.330;2023-06-24T11:14:56;3.80;;;1.77;;
17814;SDS011;9031;50.974;11.330;2023-06-24T11:17:23;1.88;;;1.70;;
17814;SDS011;9031;50.974;11.330;2023-06-24T11:19:49;1.70;;;1.60;;
17814;SDS011;9031;50.974;11.330;2023-06-24T11:22:14;3.33;;;1.77;;
17814;SDS011;9031;50.974;11.330;2023-06-24T11:24:40;4.68;;;1.73;;
17814;SDS011;9031;50.974;11.330;2023-06-24T11:27:06;1.75;;;1.60;;
17814;SDS011;9031;50.974;11.330;2023-06-24T11:29:32;3.72;;;1.92;;
17814;SDS011;9031;50.974;11.330;2023-06-24T11:32:00;2.80;;;1.60;;
17814;SDS011;9031;50.974;11.330;2023-06-24T11:34:26;3.20;;;1.90;;
17814;SDS011;9031;50.974;11.330;2023-06-24T11:36:52;2.45;;;1.83;;
17814;SDS011;9031;50.974;11.330;2023-06-24T11:39:21;1.58;;;1.38;;
17814;SDS011;9031;50.974;11.330;2023-06-24T11:41:51;1.98;;;1.58;;
17814;SDS011;9031;50.974;11.330;2023-06-24T11:44:20;2.88;;;1.80;;
17814;SDS011;9031;50.974;11.330;2023-06-24T11:46:48;2.53;;;2.10;;
17814;SDS011;9031;50.974;11.330;2023-06-24T11:49:14;1.92;;;1.48;;
17814;SDS011;9031;50.974;11.330;2023-06-24T11:51:50;1.58;;;1.38;;
17814;SDS011;9031;50.974;11.330;2023-06-24T11:54:20;1.63;;;1.40;;
17814;SDS011;9031;50.974;11.330;2023-06-24T11:56:52;3.35;;;1.40;;
17814;SDS011;9031;50.974;11.330;2023-06-24T11:59:23;3.50;;;1.27;;
17814;SDS011;9031;50.974;11.330;2023-06-24T12:01:55;2.08;;;1.60;;
17814;SDS011;9031;50.974;11.330;2023-06-24T12:04:29;1.58;;;1.20;;
17814;SDS011;9031;50.974;11.330;2023-06-24T12:06:56;1.58;;;1.25;;
17814;SDS011;9031;50.974;11.330;2023-06-24T12:09:22;1.80;;;1.50;;
17814;SDS011;9031;50.974;11.330;2023-06-24T12:11:47;1.77;;;1.30;;
17814;SDS011;9031;50.974;11.330;2023-06-24T12:14:13;2.88;;;1.80;;
17814;SDS011;9031;50.974;11.330;2023-06-24T12:16:39;1.25;;;1.15;;
17814;SDS011;9031;50.974;11.330;2023-06-24T12:19:05;4.50;;;1.35;;
17814;SDS011;9031;50.974;11.330;2023-06-24T12:21:31;2.20;;;1.38;;
17814;SDS011;9031;50.974;11.330;2023-06-24T12:23:57;1.88;;;1.40;;
17814;SDS011;9031;50.974;11.330;2023-06-24T12:26:22;1.98;;;1.25;;
17814;SDS011;9031;50.974;11.330;2023-06-24T12:28:48;1.95;;;1.38;;
17814;SDS011;9031;50.974;11.330;2023-06-24T12:31:13;1.60;;;1.50;;
17814;SDS011;9031;50.974;11.330;2023-06-24T12:33:39;2.00;;;1.90;;
17814;SDS011;9031;50.974;11.330;2023-06-24T12:36:04;2.55;;;2.35;;
17814;SDS011;9031;50.974;11.330;2023-06-24T12:38:30;2.42;;;2.15;;
17814;SDS011;9031;50.974;11.330;2023-06-24T12:40:56;1.23;;;1.13;;
17814;SDS011;9031;50.974;11.330;2023-06-24T12:43:22;2.10;;;1.88;;
17814;SDS011;9031;50.974;11.330;2023-06-24T12:45:48;2.72;;;1.20;;
17814;SDS011;9031;50.974;11.330;2023-06-24T12:48:13;1.42;;;1.20;;
17814;SDS011;9031;50.974;11.330;2023-06-24T12:50:39;1.17;;;1.08;;
17814;SDS011;9031;50.974;11.330;2023-06-24T12:53:05;2.22;;;2.10;;
17814;SDS011;9031;50.974;11.330;2023-06-24T12:55:31;1.33;;;1.23;;
17814;SDS011;9031;50.974;11.330;2023-06-24T12:57:57;2.03;;;1.63;;
17814;SDS011;9031;50.974;11.330;2023-06-24T13:00:23;1.95;;;1.63;;
17814;SDS011;9031;50.974;11.330;2023-06-24T13:02:49;2.97;;;1.70;;
17814;SDS011;9031;50.974;11.330;2023-06-24T13:05:15;2.15;;;1.92;;
17814;SDS011;9031;50.974;11.330;2023-06-24T13:07:41;2.90;;;1.95;;
17814;SDS011;9031;50.974;11.330;2023-06-24T13:10:07;3.03;;;1.75;;
17814;SDS011;9031;50.974;11.330;2023-06-24T13:12:33;2.95;;;1.70;;
17814;SDS011;9031;50.974;11.330;2023-06-24T13:14:59;2.17;;;1.70;;
17814;SDS011;9031;50.974;11.330;2023-06-24T13:17:25;1.70;;;1.60;;
17814;SDS011;9031;50.974;11.330;2023-06-24T13:19:50;3.70;;;1.60;;
17814;SDS011;9031;50.974;11.330;2023-06-24T13:22:17;1.70;;;1.60;;
17814;SDS011;9031;50.974;11.330;2023-06-24T13:24:43;1.40;;;1.30;;
17814;SDS011;9031;50.974;11.330;2023-06-24T13:27:09;2.92;;;2.05;;
17814;SDS011;9031;50.974;11.330;2023-06-24T13:29:35;2.08;;;1.60;;
17814;SDS011;9031;50.974;11.330;2023-06-24T13:32:00;2.50;;;1.60;;
17814;SDS011;9031;50.974;11.330;2023-06-24T13:34:26;1.50;;;1.40;;
17814;SDS011;9031;50.974;11.330;2023-06-24T13:36:51;1.50;;;1.40;;
17814;SDS011;9031;50.974;11.330;2023-06-24T13:39:17;8.40;;;7.47;;
17814;SDS011;9031;50.974;11.330;2023-06-24T13:41:46;1.85;;;1.48;;
17814;SDS011;9031;50.974;11.330;2023-06-24T13:44:12;1.83;;;1.45;;
17814;SDS011;9031;50.974;11.330;2023-06-24T13:46:38;1.75;;;1.58;;
17814;SDS011;9031;50.974;11.330;2023-06-24T13:49:03;1.88;;;1.60;;
17814;SDS011;9031;50.974;11.330;2023-06-24T13:51:29;1.65;;;1.35;;
17814;SDS011;9031;50.974;11.330;2023-06-24T13:53:54;2.17;;;1.23;;
17814;SDS011;9031;50.974;11.330;2023-06-24T13:56:21;4.32;;;1.80;;
17814;SDS011;9031;50.974;11.330;2023-06-24T13:58:49;3.88;;;2.00;;
17814;SDS011;9031;50.974;11.330;2023-06-24T14:01:16;2.95;;;1.95;;
17814;SDS011;9031;50.974;11.330;2023-06-24T14:03:42;3.63;;;2.60;;
17814;SDS011;9031;50.974;11.330;2023-06-24T14:06:08;2.50;;;1.98;;
17814;SDS011;9031;50.974;11.330;2023-06-24T14:08:34;2.53;;;1.95;;
17814;SDS011;9031;50.974;11.330;2023-06-24T14:11:00;2.28;;;1.95;;
17814;SDS011;9031;50.974;11.330;2023-06-24T14:13:26;2.42;;;1.75;;
17814;SDS011;9031;50.974;11.330;2023-06-24T14:15:52;1.75;;;1.65;;
17814;SDS011;9031;50.974;11.330;2023-06-24T14:18:18;3.08;;;2.00;;
17814;SDS011;9031;50.974;11.330;2023-06-24T14:20:44;2.65;;;1.75;;
17814;SDS011;9031;50.974;11.330;2023-06-24T14:23:09;2.60;;;1.60;;
17814;SDS011;9031;50.974;11.330;2023-06-24T14:25:35;3.17;;;1.58;;
17814;SDS011;9031;50.974;11.330;2023-06-24T14:28:02;2.30;;;1.60;;
17814;SDS011;9031;50.974;11.330;2023-06-24T14:30:31;3.03;;;2.50;;
17814;SDS011;9031;50.974;11.330;2023-06-24T14:32:57;2.92;;;1.58;;
17814;SDS011;9031;50.974;11.330;2023-06-24T14:35:22;1.40;;;1.30;;
17814;SDS011;9031;50.974;11.330;2023-06-24T14:37:48;1.80;;;1.20;;
17814;SDS011;9031;50.974;11.330;2023-06-24T14:40:13;1.58;;;1.48;;
17814;SDS011;9031;50.974;11.330;2023-06-24T14:42:39;2.05;;;1.42;;
17814;SDS011;9031;50.974;11.330;2023-06-24T14:45:04;2.30;;;1.33;;
17814;SDS011;9031;50.974;11.330;2023-06-24T14:47:30;2.38;;;1.35;;
17814;SDS011;9031;50.974;11.330;2023-06-24T14:49:56;1.77;;;1.35;;
17814;SDS011;9031;50.974;11.330;2023-06-24T14:52:22;2.15;;;1.70;;
17814;SDS011;9031;50.974;11.330;2023-06-24T14:54:47;2.28;;;2.08;;